createdAt,value
2023-03-05T00:03:59.520Z,95793.00
2023-03-05T00:09:27.668Z,95802.00
2023-03-05T00:14:55.744Z,95807.00
2023-03-05T00:20:23.799Z,95794.00
2023-03-05T00:25:52.058Z,95795.00
2023-03-05T00:31:30.430Z,95784.00
2023-03-05T00:36:58.651Z,95778.00
2023-03-05T00:42:26.638Z,95769.00
2023-03-05T00:47:54.670Z,95767.00
2023-03-05T00:53:23.581Z,95753.00
2023-03-05T00:58:53.510Z,95748.00
2023-03-05T01:04:21.835Z,95741.00
2023-03-05T01:09:50.237Z,95748.00
2023-03-05T01:15:18.683Z,95745.00
2023-03-05T01:20:47.811Z,95740.00
2023-03-05T01:26:16.122Z,95740.00
2023-03-05T01:31:44.784Z,95732.00
2023-03-05T01:37:12.958Z,95725.00
2023-03-05T01:42:55.701Z,95707.00
2023-03-05T01:48:23.963Z,95717.00
2023-03-05T01:53:53.042Z,95707.00
2023-03-05T01:59:23.860Z,95717.00
2023-03-05T02:05:11.691Z,95699.00
2023-03-05T02:10:46.448Z,95702.00
2023-03-05T02:16:14.499Z,95690.00
2023-03-05T02:21:49.048Z,95692.00
2023-03-05T02:27:21.475Z,95681.00
2023-03-05T02:32:49.548Z,95684.00
2023-03-05T02:38:20.651Z,95677.00
2023-03-05T02:43:48.832Z,95665.00
2023-03-05T02:49:16.867Z,95661.00
2023-03-05T02:54:44.907Z,95661.00
2023-03-05T03:00:13.999Z,95639.00
2023-03-05T03:05:42.240Z,95640.00
2023-03-05T03:11:15.360Z,95623.00
2023-03-05T03:16:43.365Z,95621.00
2023-03-05T03:22:13.638Z,95612.00
2023-03-05T03:27:44.643Z,95618.00
2023-03-05T03:33:13.047Z,95617.00
2023-03-05T03:38:41.068Z,95621.00
2023-03-05T03:44:10.775Z,95612.00
2023-03-05T03:49:39.280Z,95604.00
2023-03-05T03:55:08.156Z,95605.00
2023-03-05T04:00:36.480Z,95599.00
2023-03-05T04:06:04.948Z,95594.00
2023-03-05T04:11:33.042Z,95600.00
2023-03-05T04:17:01.314Z,95587.00
2023-03-05T04:22:29.247Z,95588.00
2023-03-05T04:27:57.127Z,95572.00
2023-03-05T04:33:25.611Z,95572.00
2023-03-05T04:38:53.604Z,95574.00
2023-03-05T04:44:23.455Z,95569.00
2023-03-05T04:49:51.603Z,95568.00
2023-03-05T04:55:20.024Z,95553.00
2023-03-05T05:00:47.983Z,95557.00
2023-03-05T05:06:15.836Z,95549.00
2023-03-05T05:11:43.626Z,95540.00
2023-03-05T05:17:11.435Z,95552.00
2023-03-05T05:22:39.560Z,95543.00
2023-03-05T05:28:07.700Z,95538.00
2023-03-05T05:33:35.632Z,95545.00
2023-03-05T05:39:03.835Z,95542.00
2023-03-05T05:44:31.714Z,95537.00
2023-03-05T05:49:59.582Z,95537.00
2023-03-05T05:55:27.762Z,95539.00
2023-03-05T06:00:55.433Z,95553.00
2023-03-05T06:06:25.885Z,95549.00
2023-03-05T06:11:53.727Z,95559.00
2023-03-05T06:17:29.826Z,95538.00
2023-03-05T06:22:58.006Z,95552.00
2023-03-05T06:28:25.888Z,95554.00
2023-03-05T06:33:58.958Z,95553.00
2023-03-05T06:39:26.793Z,95543.00
2023-03-05T06:44:54.740Z,95549.00
2023-03-05T06:50:22.669Z,95544.00
2023-03-05T06:55:51.419Z,95538.00
2023-03-05T07:01:21.480Z,95535.00
2023-03-05T07:06:49.734Z,95529.00
2023-03-05T07:12:17.563Z,95551.00
2023-03-05T07:17:45.724Z,95545.00
2023-03-05T07:23:13.563Z,95542.00
2023-03-05T07:28:42.530Z,95536.00
2023-03-05T07:34:10.466Z,95528.00
2023-03-05T07:39:38.636Z,95536.00
2023-03-05T07:45:10.260Z,95530.00
2023-03-05T07:50:38.095Z,95532.00
2023-03-05T07:56:06.828Z,95530.00
2023-03-05T08:01:35.833Z,95526.00
2023-03-05T08:07:03.730Z,95520.00
2023-03-05T08:12:31.716Z,95528.00
2023-03-05T08:18:00.162Z,95520.00
2023-03-05T08:23:28.626Z,95513.00
2023-03-05T08:28:57.504Z,95519.00
2023-03-05T08:34:25.434Z,95514.00
2023-03-05T08:39:53.333Z,95506.00
2023-03-05T08:45:21.255Z,95502.00
2023-03-05T08:50:49.933Z,95509.00
2023-03-05T08:56:17.946Z,95493.00
2023-03-05T09:01:45.789Z,95499.00
2023-03-05T09:07:13.633Z,95488.00
2023-03-05T09:12:42.326Z,95477.00
2023-03-05T09:18:10.313Z,95485.00
2023-03-05T09:23:40.357Z,95485.00
2023-03-05T09:29:09.338Z,95470.00
2023-03-05T09:34:39.358Z,95476.00
2023-03-05T09:40:08.407Z,95479.00
2023-03-05T09:45:55.446Z,95482.00
2023-03-05T09:51:32.195Z,95473.00
2023-03-05T09:57:04.532Z,95463.00
2023-03-05T10:02:37.270Z,95465.00
2023-03-05T10:08:06.340Z,95460.00
2023-03-05T10:13:40.905Z,95460.00
2023-03-05T10:19:37.003Z,95461.00
2023-03-05T10:25:48.315Z,95449.00
2023-03-05T10:31:45.149Z,95443.00
2023-03-05T10:37:34.933Z,95436.00
2023-03-05T10:43:33.988Z,95428.00
2023-03-05T10:49:29.484Z,95418.00
2023-03-05T10:54:57.313Z,95411.00
2023-03-05T11:00:28.217Z,95408.00
2023-03-05T11:06:02.049Z,95400.00
2023-03-05T11:11:31.375Z,95399.00
2023-03-05T11:17:01.281Z,95396.00
2023-03-05T11:22:33.109Z,95387.00
2023-03-05T11:28:03.363Z,95382.00
2023-03-05T11:33:32.009Z,95381.00
2023-03-05T11:39:12.309Z,95367.00
2023-03-05T11:44:49.856Z,95363.00
2023-03-05T11:50:36.114Z,95347.00
2023-03-05T11:56:22.399Z,95350.00
2023-03-05T12:01:54.492Z,95351.00
2023-03-05T12:07:51.051Z,95341.00
2023-03-05T12:13:37.095Z,95328.00
2023-03-05T12:19:34.764Z,95315.00
2023-03-05T12:25:45.773Z,95311.00
2023-03-05T12:31:38.462Z,95309.00
2023-03-05T12:37:36.000Z,95297.00
2023-03-05T12:43:29.249Z,95286.00
2023-03-05T12:48:57.807Z,95290.00
2023-03-05T12:54:42.558Z,95278.00
2023-03-05T13:00:22.872Z,95278.00
2023-03-05T13:05:57.606Z,95268.00
2023-03-05T13:11:26.200Z,95266.00
2023-03-05T13:16:54.100Z,95257.00
2023-03-05T13:22:24.685Z,95262.00
2023-03-05T13:27:52.566Z,95257.00
2023-03-05T13:33:29.658Z,95256.00
2023-03-05T13:38:57.986Z,95260.00
2023-03-05T13:44:25.948Z,95251.00
2023-03-05T13:50:07.718Z,95244.00
2023-03-05T13:55:35.753Z,95231.00
2023-03-05T14:01:28.558Z,95232.00
2023-03-05T14:07:32.964Z,95224.00
2023-03-05T14:13:08.415Z,95228.00
2023-03-05T14:18:38.141Z,95224.00
2023-03-05T14:24:15.498Z,95220.00
2023-03-05T14:29:47.332Z,95203.00
2023-03-05T14:35:28.312Z,95192.00
2023-03-05T14:40:56.615Z,95204.00
2023-03-05T14:46:24.742Z,95176.00
2023-03-05T14:51:52.657Z,95174.00
2023-03-05T14:57:28.732Z,95175.00
2023-03-05T15:02:58.097Z,95176.00
2023-03-05T15:08:29.546Z,95180.00
2023-03-05T15:13:57.773Z,95170.00
2023-03-05T15:19:25.656Z,95172.00
2023-03-05T15:24:54.068Z,95173.00
2023-03-05T15:30:38.311Z,95156.00
2023-03-05T15:36:07.067Z,95155.00
2023-03-05T15:41:35.307Z,95155.00
2023-03-05T15:47:03.203Z,95147.00
2023-03-05T15:52:31.382Z,95137.00
2023-03-05T15:57:59.427Z,95130.00
2023-03-05T16:03:27.703Z,95133.00
2023-03-05T16:09:02.118Z,95131.00
2023-03-05T16:14:32.117Z,95123.00
2023-03-05T16:20:00.357Z,95116.00
2023-03-05T16:25:31.408Z,95117.00
2023-03-05T16:30:59.445Z,95114.00
2023-03-05T16:36:35.132Z,95120.00
2023-03-05T16:42:05.683Z,95112.00
2023-03-05T16:47:34.456Z,95118.00
2023-03-05T16:53:02.867Z,95116.00
2023-03-05T16:58:31.983Z,95107.00
2023-03-05T17:04:02.047Z,95109.00
2023-03-05T17:09:30.829Z,95111.00
2023-03-05T17:14:58.898Z,95095.00
2023-03-05T17:20:27.303Z,95103.00
2023-03-05T17:25:55.602Z,95097.00
2023-03-05T17:31:23.413Z,95099.00
2023-03-05T17:36:51.289Z,95100.00
2023-03-05T17:42:22.132Z,95098.00
2023-03-05T17:47:49.962Z,95092.00
2023-03-05T17:53:17.776Z,95091.00
2023-03-05T17:58:45.576Z,95085.00
2023-03-05T18:04:15.321Z,95094.00
2023-03-05T18:09:43.275Z,95081.00
2023-03-05T18:15:14.819Z,95086.00
2023-03-05T18:20:42.972Z,95088.00
2023-03-05T18:26:10.831Z,95075.00
2023-03-05T18:31:38.689Z,95076.00
2023-03-05T18:37:06.506Z,95070.00
2023-03-05T18:42:34.824Z,95066.00
2023-03-05T18:48:02.556Z,95063.00
2023-03-05T18:53:30.593Z,95057.00
2023-03-05T18:58:59.075Z,95053.00
2023-03-05T19:04:27.730Z,95060.00
2023-03-05T19:09:59.528Z,95055.00
2023-03-05T19:15:28.188Z,95052.00
2023-03-05T19:20:56.436Z,95046.00
2023-03-05T19:26:24.208Z,95049.00
2023-03-05T19:31:53.854Z,95046.00
2023-03-05T19:37:21.888Z,95042.00
2023-03-05T19:42:49.888Z,95037.00
2023-03-05T19:48:17.753Z,95025.00
2023-03-05T19:53:46.450Z,95037.00
2023-03-05T19:59:17.896Z,95030.00
2023-03-05T20:04:45.826Z,95031.00
2023-03-05T20:10:13.690Z,95028.00
2023-03-05T20:15:41.479Z,95018.00
2023-03-05T20:21:09.394Z,95023.00
2023-03-05T20:26:46.340Z,95010.00
2023-03-05T20:32:15.210Z,95013.00
2023-03-05T20:37:51.984Z,95012.00
2023-03-05T20:43:21.168Z,95001.00
2023-03-05T20:48:51.936Z,94999.00
2023-03-05T20:54:20.283Z,94993.00
2023-03-05T20:59:49.191Z,94999.00
2023-03-05T21:05:20.257Z,94994.00
2023-03-05T21:10:48.338Z,94990.00
2023-03-05T21:16:23.833Z,94981.00
2023-03-05T21:21:51.729Z,94984.00
2023-03-05T21:27:21.689Z,94979.00
2023-03-05T21:32:50.274Z,94971.00
2023-03-05T21:38:18.656Z,94962.00
2023-03-05T21:43:47.087Z,94956.00
2023-03-05T21:49:15.927Z,94937.00
2023-03-05T21:54:44.903Z,94936.00
2023-03-05T22:00:14.370Z,94932.00
2023-03-05T22:05:45.396Z,94920.00
2023-03-05T22:11:17.768Z,94921.00
2023-03-05T22:16:46.063Z,94917.00
2023-03-05T22:22:14.951Z,94909.00
2023-03-05T22:27:46.305Z,94908.00
2023-03-05T22:33:14.659Z,94911.00
2023-03-05T22:38:43.151Z,94905.00
2023-03-05T22:44:10.901Z,94899.00
2023-03-05T22:49:39.072Z,94895.00
2023-03-05T22:55:07.502Z,94898.00
2023-03-05T23:00:35.343Z,94890.00
2023-03-05T23:06:03.124Z,94893.00
2023-03-05T23:11:31.910Z,94883.00
2023-03-05T23:16:59.754Z,94885.00
2023-03-05T23:22:27.576Z,94881.00
2023-03-05T23:27:58.131Z,94871.00
2023-03-05T23:33:26.418Z,94874.00
2023-03-05T23:38:57.929Z,94863.00
2023-03-05T23:44:25.887Z,94871.00
2023-03-05T23:49:54.586Z,94866.00
2023-03-05T23:55:30.033Z,94862.00
